Time;durP1;ratioP1;P1;durP2;ratioP2;P2;SDS_P1;SDS_P2;PMS_P1;PMS_P2;Temp;Humidity;BMP_temperature;BMP_pressure;BME280_temperature;BME280_humidity;BME280_pressure;Samples;Min_cycle;Max_cycle;Signal;HPM_P1;HPM_P2
2023/05/02 00:03:28;;;;;;;1.42;1.33;;;;;;;19.80;47.48;96661.75;10474477;28;20563;-93
2023/05/02 00:08:48;;;;;;;1.65;1.55;;;;;;;19.80;47.47;96667.97;10489548;28;20052;-92
2023/05/02 00:14:08;;;;;;;2.00;1.80;;;;;;;19.79;47.49;96669.06;10456436;28;20458;-93
2023/05/02 00:19:27;;;;;;;1.85;1.70;;;;;;;19.79;47.44;96662.88;10500025;28;20478;-92
2023/05/02 00:24:47;;;;;;;1.77;1.67;;;;;;;19.78;47.40;96666.69;10472247;28;20128;-93
2023/05/02 00:30:08;;;;;;;1.60;1.50;;;;;;;19.77;47.60;96668.59;10471596;28;20056;-93
2023/05/02 00:35:27;;;;;;;1.50;1.40;;;;;;;19.76;47.32;96664.34;10500177;28;20514;-94
2023/05/02 00:40:49;;;;;;;1.60;1.50;;;;;;;19.77;47.49;96667.81;10499233;28;20523;-94
2023/05/02 00:46:11;;;;;;;1.75;1.30;;;;;;;19.76;47.62;96672.44;10469032;28;20056;-94
2023/05/02 00:51:34;;;;;;;1.35;1.25;;;;;;;19.75;47.46;96670.84;10485813;28;20048;-94
2023/05/02 00:56:53;;;;;;;1.50;1.40;;;;;;;19.74;47.57;96666.56;10471387;28;20118;-94
2023/05/02 01:02:38;;;;;;;1.40;1.30;;;;;;;19.74;47.67;96669.28;10501858;28;20122;-93
2023/05/02 01:08:13;;;;;;;1.80;1.67;;;;;;;19.73;47.64;96678.50;10485145;28;20090;-93
2023/05/02 01:13:34;;;;;;;1.52;1.40;;;;;;;19.72;47.74;96680.41;10456765;28;20053;-92
2023/05/02 01:18:57;;;;;;;1.70;1.60;;;;;;;19.73;47.75;96684.69;10484639;28;20101;-92
2023/05/02 01:24:24;;;;;;;1.63;1.52;;;;;;;19.71;47.74;96681.50;10483905;28;20056;-93
2023/05/02 01:29:45;;;;;;;1.58;1.48;;;;;;;19.70;47.76;96698.84;10482849;28;20052;-83
2023/05/02 01:35:06;;;;;;;1.40;1.30;;;;;;;19.69;47.87;96691.03;10482257;28;20083;-83
2023/05/02 01:40:26;;;;;;;1.40;1.30;;;;;;;19.69;47.79;96699.16;10482625;28;20056;-83
2023/05/02 01:45:48;;;;;;;1.25;1.17;;;;;;;19.68;47.64;96694.84;10468215;28;20109;-83
2023/05/02 01:51:08;;;;;;;1.30;1.20;;;;;;;19.69;48.08;96696.44;10481780;28;20053;-82
2023/05/02 01:56:29;;;;;;;1.30;1.20;;;;;;;19.68;48.13;96705.66;10475616;28;20420;-83
2023/05/02 02:01:50;;;;;;;1.48;1.38;;;;;;;19.66;48.02;96700.59;10481620;28;20109;-83
2023/05/02 02:07:12;;;;;;;1.60;1.50;;;;;;;19.66;47.91;96716.00;10481364;28;20044;-83
2023/05/02 02:12:39;;;;;;;1.40;1.30;;;;;;;19.66;47.87;96716.00;10484622;28;20053;-83
2023/05/02 02:18:10;;;;;;;1.40;1.30;;;;;;;19.65;47.96;96719.84;10489153;28;20049;-83
2023/05/02 02:23:32;;;;;;;1.38;1.27;;;;;;;19.64;47.98;96719.06;10488893;28;20496;-83
2023/05/02 02:28:52;;;;;;;1.67;1.58;;;;;;;19.64;48.01;96721.78;10491162;28;20055;-93
2023/05/02 02:34:13;;;;;;;1.50;1.40;;;;;;;19.64;47.96;96716.38;10463068;28;20060;-93
2023/05/02 02:40:17;;;;;;;1.40;1.30;;;;;;;19.62;48.07;96732.13;10490144;28;20558;-93
2023/05/02 02:46:08;;;;;;;1.02;1.02;;;;;;;19.62;47.99;96742.09;10445345;28;20508;-93
2023/05/02 02:51:31;;;;;;;1.30;1.20;;;;;;;19.61;48.14;96735.91;10489901;28;20059;-93
2023/05/02 02:57:15;;;;;;;1.30;1.20;;;;;;;19.61;48.23;96751.34;10481586;28;20057;-92
2023/05/02 03:02:35;;;;;;;1.58;1.33;;;;;;;19.60;48.19;96757.84;10489292;28;20052;-94
2023/05/02 03:07:58;;;;;;;1.40;1.30;;;;;;;19.60;48.14;96750.56;10475363;28;20056;-93
2023/05/02 03:13:18;;;;;;;1.27;1.23;;;;;;;19.59;48.13;96753.59;10475427;28;20049;-93
2023/05/02 03:18:39;;;;;;;1.40;1.30;;;;;;;19.58;48.31;96751.97;10475569;28;20102;-93
2023/05/02 03:24:01;;;;;;;1.40;1.30;;;;;;;19.56;48.21;96761.22;10489392;28;20537;-94
2023/05/02 03:29:22;;;;;;;1.20;1.20;;;;;;;19.57;48.39;96767.41;10510889;28;20068;-93
2023/05/02 03:34:41;;;;;;;1.38;1.27;;;;;;;19.55;48.41;96762.31;10539509;28;20040;-94
2023/05/02 03:40:02;;;;;;;1.25;1.20;;;;;;;19.55;48.46;96766.94;10525582;28;20062;-94
2023/05/02 03:45:23;;;;;;;1.30;1.20;;;;;;;19.54;48.28;96776.97;10508833;28;20136;-93
2023/05/02 03:50:45;;;;;;;1.30;1.20;;;;;;;19.55;48.58;96781.25;10488981;28;20047;-93
2023/05/02 03:56:06;;;;;;;1.30;1.20;;;;;;;19.53;48.43;96778.06;10468485;28;20104;-93
2023/05/02 04:01:35;;;;;;;1.30;1.20;;;;;;;19.54;48.37;96784.25;10489323;28;20136;-94
2023/05/02 04:06:55;;;;;;;1.30;1.20;;;;;;;19.53;48.36;96793.50;10503720;28;20119;-93
2023/05/02 04:12:16;;;;;;;1.38;1.27;;;;;;;19.52;48.43;96800.81;10459694;28;20053;-93
2023/05/02 04:17:39;;;;;;;1.23;1.10;;;;;;;19.52;48.37;96802.72;10473210;28;20463;-94
2023/05/02 04:23:01;;;;;;;1.30;1.20;;;;;;;19.52;48.43;96802.72;10486695;28;20397;-93
2023/05/02 04:28:21;;;;;;;1.20;1.10;;;;;;;19.51;48.35;96807.31;10484319;28;20469;-84
2023/05/02 04:33:42;;;;;;;1.10;1.10;;;;;;;19.52;48.42;96817.03;10469614;28;20412;-84
2023/05/02 04:39:06;;;;;;;1.40;1.30;;;;;;;19.51;48.67;96828.94;10470522;28;20048;-84
2023/05/02 04:49:59;;;;;;;1.35;1.25;;;;;;;19.54;47.75;96849.94;10998407;23;20057;-81
2023/05/02 04:55:21;;;;;;;1.33;1.23;;;;;;;19.56;48.03;96852.28;10320494;28;20053;-81
2023/05/02 05:00:41;;;;;;;1.45;1.35;;;;;;;19.59;47.95;96856.28;10306240;28;20066;-81
2023/05/02 05:06:01;;;;;;;2.28;1.83;;;;;;;19.60;48.13;96864.06;10322679;28;20077;-81
2023/05/02 05:11:22;;;;;;;1.70;1.42;;;;;;;19.66;48.40;96867.34;10309073;28;20418;-81
2023/05/02 05:16:50;;;;;;;1.70;1.60;;;;;;;19.70;48.32;96871.81;10334504;28;20062;-82
2023/05/02 05:22:23;;;;;;;1.50;1.40;;;;;;;19.71;48.33;96881.53;10321092;28;20054;-82
2023/05/02 05:27:54;;;;;;;1.50;1.40;;;;;;;19.71;48.04;96895.03;10320913;28;20137;-82
2023/05/02 05:33:14;;;;;;;1.65;1.55;;;;;;;19.72;48.51;96898.56;10318805;28;20050;-82
2023/05/02 05:38:35;;;;;;;1.95;1.40;;;;;;;19.73;48.65;96900.13;10332828;28;20104;-82
2023/05/02 05:43:56;;;;;;;1.80;1.70;;;;;;;19.73;48.86;96905.53;10318589;28;20055;-83
2023/05/02 05:49:18;;;;;;;1.95;1.50;;;;;;;19.75;48.83;96906.00;10289400;28;20137;-82
2023/05/02 05:54:39;;;;;;;4.18;1.30;;;;;;;19.80;49.11;96910.44;10299810;28;20105;-82
2023/05/02 05:59:59;;;;;;;3.67;1.50;;;;;;;19.81;48.39;96912.81;10299633;28;20418;-83
2023/05/02 06:05:19;;;;;;;2.85;1.55;;;;;;;19.82;48.95;96927.16;10299825;28;20054;-84
2023/05/02 06:10:40;;;;;;;1.52;1.33;;;;;;;19.85;48.93;96937.31;10287516;28;20050;-83
2023/05/02 06:16:01;;;;;;;1.30;1.20;;;;;;;19.87;48.97;96941.25;10320919;28;20135;-83
2023/05/02 06:21:21;;;;;;;4.75;2.03;;;;;;;19.90;48.64;96937.94;10305041;28;20089;-83
2023/05/02 06:26:40;;;;;;;5.20;2.40;;;;;;;19.93;48.54;96947.28;10287721;28;20055;-83
2023/05/02 06:31:59;;;;;;;3.83;2.38;;;;;;;19.95;48.60;96947.75;10272307;28;20096;-83
2023/05/02 06:37:19;;;;;;;9.00;2.65;;;;;;;19.97;48.46;96948.22;10298319;28;20059;-83
2023/05/02 06:42:39;;;;;;;5.50;2.30;;;;;;;20.00;48.51;96957.63;10271722;28;20047;-83
2023/05/02 06:47:59;;;;;;;6.70;2.40;;;;;;;20.02;48.57;96966.22;10294457;28;20047;-83
2023/05/02 06:53:20;;;;;;;5.93;2.60;;;;;;;20.05;48.36;96970.97;10297580;28;20109;-83
2023/05/02 06:58:40;;;;;;;4.50;2.15;;;;;;;20.08;48.50;96981.16;10283733;28;20050;-83
2023/05/02 07:04:02;;;;;;;5.88;2.83;;;;;;;20.09;48.70;96988.94;10271492;28;20132;-83
2023/05/02 07:09:22;;;;;;;4.45;2.55;;;;;;;20.13;48.82;96989.06;10296786;28;20422;-83
2023/05/02 07:14:42;;;;;;;4.70;2.60;;;;;;;20.15;48.73;96997.69;10283103;28;20077;-83
2023/05/02 07:20:02;;;;;;;5.50;3.00;;;;;;;20.18;48.93;96986.19;10296426;28;20081;-83
2023/05/02 07:25:24;;;;;;;3.60;2.00;;;;;;;20.19;49.13;96998.63;10282594;28;20074;-83
2023/05/02 07:30:43;;;;;;;5.05;2.40;;;;;;;20.22;48.95;96991.75;10283383;28;20487;-82
2023/05/02 07:36:04;;;;;;;3.50;2.17;;;;;;;20.24;48.93;96997.63;10283511;28;20055;-82
2023/05/02 07:41:23;;;;;;;3.80;2.35;;;;;;;20.24;48.91;96993.00;10295747;28;20525;-82
2023/05/02 07:46:43;;;;;;;3.50;2.53;;;;;;;20.25;48.82;97008.13;10281838;28;20059;-83
2023/05/02 07:52:03;;;;;;;5.18;2.20;;;;;;;20.26;49.61;97004.31;10281941;28;20050;-83
2023/05/02 07:57:24;;;;;;;4.05;2.42;;;;;;;20.27;49.67;97011.31;10282591;28;20047;-84
2023/05/02 08:02:45;;;;;;;3.60;2.28;;;;;;;20.30;49.74;97020.69;10298193;28;20059;-83
2023/05/02 08:08:06;;;;;;;2.92;2.20;;;;;;;20.32;49.96;97035.47;10294611;28;20440;-83
2023/05/02 08:13:27;;;;;;;6.55;2.67;;;;;;;20.32;50.36;97030.06;10294570;28;20101;-83
2023/05/02 08:18:47;;;;;;;5.38;2.20;;;;;;;20.33;50.04;97028.97;10315899;28;20426;-83
2023/05/02 08:24:06;;;;;;;4.97;3.60;;;;;;;20.32;48.04;97035.47;10339184;28;20061;-83
2023/05/02 08:29:26;;;;;;;6.57;4.03;;;;;;;20.22;44.58;97035.81;10300560;28;20064;-83
2023/05/02 08:34:46;;;;;;;7.15;4.07;;;;;;;20.12;43.43;97036.97;10297374;28;20437;-83
2023/05/02 08:40:10;;;;;;;5.07;4.03;;;;;;;20.04;42.62;97048.59;10307343;28;20072;-83
2023/05/02 08:45:37;;;;;;;6.07;4.20;;;;;;;20.05;43.32;97057.50;10306842;28;20077;-83
2023/05/02 08:50:58;;;;;;;6.07;3.53;;;;;;;20.09;44.33;97059.25;10290506;28;20502;-83
2023/05/02 08:56:18;;;;;;;4.75;3.40;;;;;;;20.13;44.98;97059.38;10293170;28;20046;-91
2023/05/02 09:01:38;;;;;;;5.10;3.50;;;;;;;20.15;44.97;97073.41;10308088;28;20050;-92
2023/05/02 09:06:59;;;;;;;3.97;3.22;;;;;;;20.19;45.36;97071.66;10320621;28;20057;-92
2023/05/02 09:12:25;;;;;;;5.55;3.70;;;;;;;20.21;45.45;97085.66;10306659;28;20513;-91
2023/05/02 09:17:46;;;;;;;3.88;3.38;;;;;;;20.22;45.58;97089.94;10334288;28;20498;-91
2023/05/02 09:23:29;;;;;;;3.72;3.30;;;;;;;20.22;45.72;97100.75;10320409;28;20082;-91
2023/05/02 09:29:04;;;;;;;3.22;2.92;;;;;;;20.24;45.80;97098.53;10313722;28;20054;-90
2023/05/02 09:34:23;;;;;;;4.88;3.17;;;;;;;20.25;46.17;97104.75;10293340;28;20050;-90
2023/05/02 09:40:04;;;;;;;5.53;3.55;;;;;;;20.25;46.58;97110.94;10320725;28;20055;-89
2023/05/02 09:45:25;;;;;;;4.90;3.63;;;;;;;20.25;46.51;97110.94;10355729;28;20062;-91
2023/05/02 09:50:45;;;;;;;4.18;3.40;;;;;;;20.26;46.76;97111.72;10345522;28;20072;-92
2023/05/02 09:56:05;;;;;;;3.92;3.40;;;;;;;20.25;46.88;97120.97;10324424;28;20054;-91
2023/05/02 10:01:25;;;;;;;3.75;3.35;;;;;;;20.26;47.02;97120.63;10333311;28;20076;-91
2023/05/02 10:06:45;;;;;;;3.92;2.90;;;;;;;20.26;47.12;97125.25;10331941;28;20059;-91
2023/05/02 10:12:07;;;;;;;3.28;2.90;;;;;;;20.27;47.08;97124.94;10319038;28;20062;-91
2023/05/02 10:17:47;;;;;;;6.53;3.63;;;;;;;20.27;43.13;97134.97;10320518;28;20104;-91
2023/05/02 10:23:07;;;;;;;4.20;3.60;;;;;;;20.24;42.50;97138.31;10289750;28;20153;-92
2023/05/02 10:28:28;;;;;;;6.88;3.97;;;;;;;20.21;41.76;97131.63;10332552;28;20050;-92
2023/05/02 10:33:52;;;;;;;4.38;3.63;;;;;;;20.19;41.94;97131.16;10322886;28;20046;-92
2023/05/02 10:39:12;;;;;;;3.85;3.50;;;;;;;20.18;41.62;97137.66;10326429;28;20065;-93
2023/05/02 10:44:39;;;;;;;6.32;3.75;;;;;;;20.15;41.58;97133.72;10314699;28;20050;-93
2023/05/02 10:50:00;;;;;;;6.53;3.85;;;;;;;20.14;41.04;97125.91;10285220;28;20082;-93
2023/05/02 10:55:21;;;;;;;4.78;3.33;;;;;;;20.12;42.79;97138.97;10326048;28;20043;-92
2023/05/02 11:00:43;;;;;;;4.05;3.10;;;;;;;20.13;43.21;97135.94;10311760;28;20525;-93
2023/05/02 11:06:05;;;;;;;3.53;3.15;;;;;;;20.14;43.47;97139.44;10284643;28;20061;-93
2023/05/02 11:11:43;;;;;;;3.08;2.80;;;;;;;20.14;43.49;97131.31;10295949;28;20109;-92
2023/05/02 11:17:09;;;;;;;6.38;3.17;;;;;;;20.12;44.01;97131.63;10298914;28;20062;-92
2023/05/02 11:22:33;;;;;;;3.45;3.10;;;;;;;20.13;44.06;97135.13;10314460;28;20062;-92
2023/05/02 11:27:52;;;;;;;3.45;3.08;;;;;;;20.12;44.36;97131.63;10311595;28;20134;-93
2023/05/02 11:33:15;;;;;;;4.85;3.17;;;;;;;20.13;44.56;97121.59;10297206;28;20051;-94
2023/05/02 11:38:37;;;;;;;3.90;3.47;;;;;;;20.15;44.87;97132.91;10310615;28;20450;-92
2023/05/02 11:44:04;;;;;;;3.33;3.03;;;;;;;20.14;44.97;97125.91;10297185;28;20495;-93
2023/05/02 11:49:24;;;;;;;4.15;3.15;;;;;;;20.15;45.13;97132.91;10293905;28;20064;-94
2023/05/02 11:54:44;;;;;;;4.60;2.90;;;;;;;20.15;45.36;97143.75;10323111;28;20051;-93
2023/05/02 12:00:05;;;;;;;4.03;2.80;;;;;;;20.16;45.20;97139.91;10295882;28;20133;-93
2023/05/02 12:05:29;;;;;;;3.10;2.80;;;;;;;20.19;45.22;97141.97;10322428;28;20050;-92
2023/05/02 12:10:51;;;;;;;3.28;2.90;;;;;;;20.19;45.13;97139.28;10308739;28;20050;-93
2023/05/02 12:16:12;;;;;;;3.15;2.80;;;;;;;20.20;45.23;97143.56;10308740;28;20050;-93
2023/05/02 12:21:32;;;;;;;3.08;2.70;;;;;;;20.20;45.44;97143.56;10321531;28;20050;-92
2023/05/02 12:27:16;;;;;;;3.28;2.80;;;;;;;20.20;45.57;97157.09;10308254;28;20118;-92
2023/05/02 12:32:37;;;;;;;3.47;2.75;;;;;;;20.20;45.60;97162.50;10321181;28;20080;-90
2023/05/02 12:38:09;;;;;;;3.65;2.67;;;;;;;20.21;45.57;97163.28;10321139;28;20129;-93
2023/05/02 12:43:44;;;;;;;3.47;2.80;;;;;;;20.20;45.63;97157.09;10307536;28;20065;-91
2023/05/02 12:49:08;;;;;;;3.22;2.92;;;;;;;20.20;45.69;97172.53;10294394;28;20088;-92
2023/05/02 12:54:28;;;;;;;3.40;3.10;;;;;;;20.18;45.27;97172.84;10307657;28;20632;-93
2023/05/02 12:59:51;;;;;;;3.50;3.20;;;;;;;20.12;43.77;97171.41;10307332;28;20077;-92
2023/05/02 13:05:15;;;;;;;4.25;3.42;;;;;;;20.03;42.70;97184.13;10320983;28;20590;-91
2023/05/02 13:10:35;;;;;;;5.28;2.92;;;;;;;19.90;41.84;97180.47;10293679;28;20050;-92
2023/05/02 13:15:55;;;;;;;4.97;3.00;;;;;;;19.81;41.38;97191.28;10306266;28;20073;-92
2023/05/02 13:21:14;;;;;;;4.00;2.80;;;;;;;19.77;41.55;97186.81;10319876;28;20056;-91
2023/05/02 13:26:34;;;;;;;5.43;3.67;;;;;;;19.59;41.61;97189.47;10319962;28;20042;-93
2023/05/02 13:31:54;;;;;;;5.35;3.92;;;;;;;19.42;42.32;97182.09;10319751;28;20130;-92
2023/05/02 13:37:14;;;;;;;5.97;3.40;;;;;;;19.30;42.92;97185.41;10319244;28;20085;-93
2023/05/02 13:42:34;;;;;;;4.72;3.40;;;;;;;19.25;42.07;97184.72;10319008;28;20051;-84
2023/05/02 13:47:54;;;;;;;9.23;3.80;;;;;;;19.21;42.61;97192.69;10314301;28;20062;-85
2023/05/02 13:53:16;;;;;;;4.95;3.50;;;;;;;19.22;42.52;97193.47;10288584;28;20125;-84
2023/05/02 13:58:36;;;;;;;5.50;3.60;;;;;;;19.23;42.16;97190.47;10292282;28;20054;-84
2023/05/02 14:03:57;;;;;;;5.13;3.40;;;;;;;19.24;42.25;97192.06;10318593;28;20133;-84
2023/05/02 14:09:17;;;;;;;6.65;3.80;;;;;;;19.28;41.77;97203.03;10293934;28;20077;-93
2023/05/02 14:14:37;;;;;;;3.90;3.50;;;;;;;19.30;41.59;97195.41;10316973;28;20038;-91
2023/05/02 14:19:57;;;;;;;5.63;2.80;;;;;;;19.30;41.58;97209.72;10378261;28;20034;-93
2023/05/02 14:25:19;;;;;;;5.03;2.97;;;;;;;19.30;41.74;97207.00;10365325;28;20089;-93
2023/05/02 14:30:39;;;;;;;3.85;2.90;;;;;;;19.30;41.82;97208.91;10291468;28;20058;-91
2023/05/02 14:35:59;;;;;;;4.68;3.00;;;;;;;19.28;41.62;97219.25;10342558;28;20046;-92
2023/05/02 14:41:20;;;;;;;4.05;3.00;;;;;;;19.28;41.50;97216.53;10326767;28;20061;-92
2023/05/02 14:46:40;;;;;;;4.07;2.58;;;;;;;19.30;42.39;97217.03;10327319;28;20108;-91
2023/05/02 14:52:00;;;;;;;2.80;2.03;;;;;;;19.39;42.94;97223.25;10325918;28;20134;-92
2023/05/02 14:57:21;;;;;;;3.00;2.70;;;;;;;19.46;43.13;97231.69;10325010;28;20053;-92
2023/05/02 15:02:41;;;;;;;4.65;2.95;;;;;;;19.52;43.47;97238.56;10325521;28;20487;-92
2023/05/02 15:08:01;;;;;;;3.28;2.97;;;;;;;19.58;43.31;97238.41;10295835;28;20054;-92
2023/05/02 15:13:21;;;;;;;2.80;2.50;;;;;;;19.61;43.74;97241.28;10324505;28;20072;-93
2023/05/02 15:18:41;;;;;;;3.00;2.70;;;;;;;19.65;43.75;97249.56;10323618;28;20514;-93
2023/05/02 15:24:36;;;;;;;3.78;2.80;;;;;;;19.68;43.90;97254.34;10300018;28;20055;-93
2023/05/02 15:29:56;;;;;;;3.05;2.83;;;;;;;19.70;44.10;97249.44;10299064;28;20145;-93
2023/05/02 15:35:34;;;;;;;3.53;2.63;;;;;;;19.73;44.36;97262.34;10313839;28;20134;-93
2023/05/02 15:41:03;;;;;;;3.38;2.78;;;;;;;19.75;44.38;97262.81;10304563;28;20062;-93
2023/05/02 15:46:24;;;;;;;3.85;2.90;;;;;;;19.76;44.50;97261.72;10325950;28;20054;-92
2023/05/02 15:51:44;;;;;;;3.92;2.40;;;;;;;19.78;44.62;97273.03;10297217;28;20057;-92
2023/05/02 15:57:04;;;;;;;3.33;2.63;;;;;;;19.80;44.66;97278.09;10323352;28;20066;-94
2023/05/02 16:02:24;;;;;;;2.67;2.47;;;;;;;19.82;44.91;97282.09;10296697;28;20062;-92
2023/05/02 16:07:44;;;;;;;2.72;2.47;;;;;;;19.84;45.09;97281.78;10286076;28;20494;-93
2023/05/02 16:13:04;;;;;;;2.60;2.40;;;;;;;19.86;45.06;97282.28;10324699;28;20057;-93
2023/05/02 16:18:27;;;;;;;2.95;2.33;;;;;;;19.86;45.06;97280.34;10323616;28;20485;-93
2023/05/02 16:24:02;;;;;;;3.67;2.35;;;;;;;19.88;45.24;97291.66;10324283;28;20132;-94
2023/05/02 16:29:27;;;;;;;2.47;2.27;;;;;;;19.90;45.40;97286.72;10280525;28;20062;-92
2023/05/02 16:34:47;;;;;;;5.15;2.40;;;;;;;19.90;45.47;97300.25;10323644;28;20429;-94
2023/05/02 16:40:08;;;;;;;2.97;2.10;;;;;;;19.91;45.71;97291.00;10323883;28;20074;-94
2023/05/02 16:45:28;;;;;;;2.47;2.28;;;;;;;19.94;45.79;97289.59;10280376;28;20550;-94
2023/05/02 16:50:49;;;;;;;2.40;2.08;;;;;;;19.95;45.57;97283.06;10311524;28;20062;-92
2023/05/02 16:56:09;;;;;;;2.28;2.08;;;;;;;19.96;45.70;97290.06;10326446;28;20069;-93
2023/05/02 17:01:29;;;;;;;2.55;2.35;;;;;;;19.98;46.02;97289.78;10307384;28;20065;-92
2023/05/02 17:06:49;;;;;;;2.28;2.08;;;;;;;19.98;45.91;97295.19;10337251;28;20050;-93
2023/05/02 17:12:09;;;;;;;2.25;2.13;;;;;;;19.98;45.92;97295.97;10292660;28;20061;-93
2023/05/02 17:17:31;;;;;;;2.53;2.33;;;;;;;20.00;45.42;97303.78;10323481;28;20137;-93
2023/05/02 17:22:51;;;;;;;3.25;2.03;;;;;;;19.99;45.84;97305.66;10294154;28;20133;-93
2023/05/02 17:28:11;;;;;;;3.85;2.30;;;;;;;20.00;45.84;97315.38;10308525;28;20180;-92
2023/05/02 17:33:30;;;;;;;2.42;2.22;;;;;;;20.01;45.83;97316.97;10306001;28;20426;-93
2023/05/02 17:38:51;;;;;;;2.55;2.05;;;;;;;20.04;46.06;97326.38;10307074;28;20057;-93
2023/05/02 17:44:11;;;;;;;2.92;2.28;;;;;;;20.05;46.19;97333.34;10317287;28;20071;-92
2023/05/02 17:49:32;;;;;;;2.53;2.30;;;;;;;20.06;46.07;97341.16;10326443;28;20055;-93
2023/05/02 17:54:51;;;;;;;2.40;2.20;;;;;;;20.04;46.06;97343.38;10333539;28;20057;-93
2023/05/02 18:00:15;;;;;;;2.72;2.22;;;;;;;20.08;46.10;97346.25;10306835;28;20058;-93
2023/05/02 18:05:39;;;;;;;2.55;2.35;;;;;;;20.09;46.13;97355.97;10290805;28;20105;-93
2023/05/02 18:10:59;;;;;;;3.08;2.10;;;;;;;20.08;46.20;97357.88;10320243;28;20564;-93
2023/05/02 18:16:34;;;;;;;;;;;;;;;;;;;;;
2023/05/02 18:21:57;;;;;;;2.33;2.13;;;;;;;20.09;46.23;97364.06;10334950;28;20154;-93
2023/05/02 18:27:17;;;;;;;3.33;2.20;;;;;;;20.10;46.29;97369.19;10291819;28;20066;-93
2023/05/02 18:32:38;;;;;;;2.40;2.20;;;;;;;20.11;46.22;97378.06;10335449;28;20048;-93
2023/05/02 18:37:58;;;;;;;2.65;2.10;;;;;;;20.13;46.58;97383.97;10367177;28;20053;-93
2023/05/02 18:43:18;;;;;;;2.53;2.30;;;;;;;20.12;46.75;97387.81;10370329;28;20073;-94
2023/05/02 18:48:39;;;;;;;3.08;2.15;;;;;;;20.12;46.88;97395.91;10335167;28;20105;-92
2023/05/02 18:53:58;;;;;;;2.28;1.92;;;;;;;20.12;46.97;97404.81;10301620;28;20054;-92
2023/05/02 18:59:18;;;;;;;5.28;2.00;;;;;;;20.12;47.12;97414.84;10312628;28;20074;-93
2023/05/02 19:04:38;;;;;;;2.80;1.90;;;;;;;20.13;47.13;97413.72;10325083;28;20065;-93
2023/05/02 19:09:59;;;;;;;2.15;1.95;;;;;;;20.12;47.17;97423.75;10311541;28;20557;-93
2023/05/02 19:15:18;;;;;;;2.10;1.90;;;;;;;20.12;47.32;97428.38;10324631;28;20047;-93
2023/05/02 19:20:37;;;;;;;2.58;2.00;;;;;;;20.11;47.19;97427.59;10324434;28;20097;-93
2023/05/02 19:26:02;;;;;;;2.42;2.00;;;;;;;20.11;47.14;97435.69;10296336;28;20058;-91
2023/05/02 19:31:22;;;;;;;2.05;1.85;;;;;;;20.12;47.36;97448.09;10310765;28;20054;-92
2023/05/02 19:36:43;;;;;;;2.42;1.95;;;;;;;20.11;47.41;97461.94;10340815;28;20101;-93
2023/05/02 19:42:03;;;;;;;4.80;2.40;;;;;;;20.11;47.30;97483.56;10310989;28;20050;-92
2023/05/02 19:47:23;;;;;;;2.30;2.10;;;;;;;20.11;47.07;97492.50;10301203;28;20050;-92
2023/05/02 19:52:43;;;;;;;3.17;2.15;;;;;;;20.11;47.14;97497.09;10296744;28;20098;-93
2023/05/02 19:58:03;;;;;;;3.60;2.10;;;;;;;20.09;47.25;97496.59;10310217;28;20050;-93
2023/05/02 20:03:24;;;;;;;3.25;1.98;;;;;;;20.09;47.25;97494.72;10323269;28;20058;-93
2023/05/02 20:08:44;;;;;;;2.00;1.80;;;;;;;20.09;47.19;97499.31;10322975;28;20057;-94
2023/05/02 20:14:04;;;;;;;2.50;2.30;;;;;;;20.09;47.14;97512.84;10324298;28;20054;-93
2023/05/02 20:19:28;;;;;;;1.88;1.77;;;;;;;20.08;47.30;97508.56;10311539;28;20404;-93
2023/05/02 20:24:48;;;;;;;10.95;2.38;;;;;;;20.07;47.24;97520.47;10308772;28;20054;-92
2023/05/02 20:30:08;;;;;;;2.10;1.90;;;;;;;20.08;47.08;97520.16;10336191;28;20050;-93
2023/05/02 20:35:28;;;;;;;3.15;2.40;;;;;;;20.09;47.15;97518.25;10321939;28;20054;-93
2023/05/02 20:40:49;;;;;;;2.45;2.10;;;;;;;20.07;47.01;97531.28;10279528;28;20061;-93
2023/05/02 20:46:14;;;;;;;3.33;2.20;;;;;;;20.06;47.04;97524.28;10308300;28;20455;-94
2023/05/02 20:51:34;;;;;;;2.20;2.00;;;;;;;20.05;46.68;97539.72;10309147;28;20109;-92
2023/05/02 20:56:54;;;;;;;2.20;2.00;;;;;;;20.05;47.11;97547.03;10320854;28;20101;-93
2023/05/02 21:02:16;;;;;;;3.30;2.05;;;;;;;20.04;47.00;97540.03;10320854;28;20058;-84
2023/05/02 21:07:35;;;;;;;2.20;2.00;;;;;;;20.03;47.18;97538.44;10307864;28;20050;-92
2023/05/02 21:12:58;;;;;;;2.10;1.90;;;;;;;20.02;47.12;97540.34;10307653;28;20455;-92
2023/05/02 21:18:19;;;;;;;2.42;2.00;;;;;;;20.03;47.10;97541.13;10306712;28;20552;-92
2023/05/02 21:23:40;;;;;;;2.55;2.08;;;;;;;20.02;47.06;97550.38;10304531;28;20112;-93
2023/05/02 21:29:00;;;;;;;2.10;1.88;;;;;;;20.00;47.07;97558.78;10319772;28;20057;-92
2023/05/02 21:34:20;;;;;;;2.03;1.85;;;;;;;19.98;47.06;97555.59;10292929;28;20062;-92
2023/05/02 21:39:40;;;;;;;2.20;2.00;;;;;;;19.99;47.12;97565.28;10306499;28;20050;-92
2023/05/02 21:45:00;;;;;;;2.65;2.10;;;;;;;19.99;47.08;97559.88;10303627;28;20058;-92
2023/05/02 21:50:20;;;;;;;2.47;2.10;;;;;;;19.98;47.14;97568.31;10319553;28;20054;-92
2023/05/02 21:55:40;;;;;;;1.90;1.70;;;;;;;19.96;47.07;97574.03;10293143;28;20133;-92
2023/05/02 22:01:00;;;;;;;2.15;1.95;;;;;;;19.95;47.14;97578.66;10319694;28;20519;-92
2023/05/02 22:06:22;;;;;;;2.35;1.95;;;;;;;19.95;47.14;97589.47;10290322;28;20058;-93
2023/05/02 22:11:42;;;;;;;2.30;2.10;;;;;;;19.97;47.14;97580.22;10305283;28;20418;-93
2023/05/02 22:17:03;;;;;;;3.45;1.88;;;;;;;19.94;46.97;97587.84;10292604;28;20182;-93
2023/05/02 22:22:23;;;;;;;1.92;1.83;;;;;;;19.95;47.21;97588.66;10318758;28;20050;-93
2023/05/02 22:27:42;;;;;;;1.83;1.63;;;;;;;19.93;47.27;97591.69;10306313;28;20517;-94
2023/05/02 22:33:02;;;;;;;2.00;1.90;;;;;;;19.92;47.20;97592.78;10339160;28;20487;-84
2023/05/02 22:38:22;;;;;;;2.20;2.00;;;;;;;19.91;47.14;97585.75;10299311;28;20054;-93
2023/05/02 22:43:42;;;;;;;2.75;1.92;;;;;;;19.91;47.18;97591.16;10340235;28;20046;-92
2023/05/02 22:49:02;;;;;;;2.03;1.80;;;;;;;19.90;47.09;97589.56;10377284;28;20038;-92
2023/05/02 22:54:21;;;;;;;2.00;1.85;;;;;;;19.90;47.13;97597.69;10373613;28;20115;-93
2023/05/02 22:59:41;;;;;;;1.70;1.60;;;;;;;19.89;47.08;97595.28;10338704;28;20141;-93
2023/05/02 23:05:05;;;;;;;1.92;1.80;;;;;;;19.88;47.00;97596.41;10325285;28;20059;-92
2023/05/02 23:10:25;;;;;;;1.80;1.70;;;;;;;19.88;47.17;97597.19;10324905;28;20050;-93
2023/05/02 23:15:44;;;;;;;1.73;1.63;;;;;;;19.86;47.20;97604.81;10324560;28;20057;-93
2023/05/02 23:21:04;;;;;;;1.80;1.70;;;;;;;19.86;47.09;97610.22;10311040;28;20061;-93
2023/05/02 23:26:24;;;;;;;1.70;1.60;;;;;;;19.85;47.18;97605.91;10324445;28;20054;-94
2023/05/02 23:31:44;;;;;;;2.08;1.90;;;;;;;19.85;47.08;97600.50;10327225;28;20062;-93
2023/05/02 23:37:05;;;;;;;1.92;1.50;;;;;;;19.85;47.10;97600.50;10324945;28;20061;-93
2023/05/02 23:42:26;;;;;;;1.65;1.55;;;;;;;19.83;47.09;97602.72;10310521;28;20056;-93
2023/05/02 23:47:46;;;;;;;1.65;1.55;;;;;;;19.82;47.28;97608.44;10307744;28;20046;-93
2023/05/02 23:53:06;;;;;;;1.65;1.52;;;;;;;19.81;47.17;97606.84;10296377;28;20231;-92
2023/05/02 23:58:26;;;;;;;2.28;1.63;;;;;;;19.79;47.18;97607.13;10309371;28;20061;-92
